Bangkok (Don Mueang), Thailand

11:43 PM ICT on August 25, 2016 (GMT +0700)
Soi Ekkarat 15/2 | | Change Station

Elev 19 ft 13.96 °N, 100.60 °E | Updated 3 minutes ago

Scattered Clouds
Scattered Clouds
85.5 °F
Feels Like 99 °F
N
1.2
Wind Variable Wind from SW
Gusts 2.5 mph

Today
High -- | Low -- °F
--% Chance of Precip.
Yesterday
High -- | Low -- °F
Precip. -- in
Pressure 29.74 in
Visibility 6.2 miles
Clouds Few 2000 ft
Scattered Clouds 4000 ft
Heat Index 99 °F
Dew Point 79 °F
Humidity 81%
Rainfall in
Snow Depth Not available.
6:05 AM 6:33 PM
Last Quarter, 44% visible
METAR VTBD 251630Z 30006KT 9999 FEW020 SCT040 26/25 Q1007 NOSIG
Pressure 29.74 in
Visibility 6.2 miles
Clouds Few 2000 ft
Scattered Clouds 4000 ft
Heat Index 99 °F
Dew Point 79 °F
Humidity 81%
Rainfall in
Snow Depth Not available.
6:05 AM 6:33 PM
Last Quarter, 44% visible
METAR VTBD 251630Z 30006KT 9999 FEW020 SCT040 26/25 Q1007 NOSIG

10-Day Weather Forecast

No radar image for this location.
×

Almanac

Astronomy

Aug. 25, 2016 Rise Set
Actual Time
Civil Twilight
Nautical Twilight
Astronomical Twilight
Moon
Length of Visible Light
Length of Day
Tomorrow will be .
, % of the Moon is Illuminated

Today's Extremes

Country Highs Country Lows

Community

WunderPhotos

Upload Photos

1,934,869 photos uploaded!

WunderBlog® & News

Nearby

Air Quality

  Air Quality AQ Index Pollutant
Not available.

Snow Depth

Station Depth Elevation

Earthquake Activity

City Distance Mag. Time & Date
Minimum magnitude displayed is 2.5.

Coastal Water Temperatures

Place Temperature

Stations

Nearby Weather Stations

Station Location Temp. Windchill Dew Point Humidity Wind Precip. Elev Updated Type